Time;durP1;ratioP1;P1;durP2;ratioP2;P2;SDS_P1;SDS_P2;PMS_P1;PMS_P2;Temp;Humidity;BMP_temperature;BMP_pressure;BME280_temperature;BME280_humidity;BME280_pressure;Samples;Min_cycle;Max_cycle;Signal;HPM_P1;HPM_P2
2021/05/19 00:00:45;;;;;;;2.33;1.60;;;7.20;99.90;;;7.42;100.00;94907.00;2191170;57;26617;-63
2021/05/19 00:03:31;;;;;;;2.80;1.60;;;7.10;99.90;;;7.24;100.00;94905.00;2191327;57;26570;-63
2021/05/19 00:06:17;;;;;;;3.57;1.47;;;7.10;99.90;;;7.21;100.00;94910.00;2405551;57;26522;-63
2021/05/19 00:09:08;;;;;;;2.10;1.70;;;7.00;99.90;;;7.25;100.00;94910.00;2191090;57;26136;-63
2021/05/19 00:11:54;;;;;;;1.43;1.33;;;7.00;99.90;;;7.13;100.00;94903.00;2405487;57;26103;-63
2021/05/19 00:14:40;;;;;;;3.43;1.33;;;7.20;99.90;;;7.56;100.00;94910.00;2191366;57;26601;-63
2021/05/19 00:17:27;;;;;;;4.80;1.70;;;7.30;99.90;;;7.50;100.00;94905.00;2405423;57;26205;-63
2021/05/19 00:20:16;;;;;;;2.33;1.77;;;7.10;99.90;;;7.20;100.00;94904.00;2191029;57;26201;-63
2021/05/19 00:23:03;;;;;;;2.00;1.30;;;7.00;99.90;;;7.12;100.00;94911.00;2404587;57;26205;-63
2021/05/19 00:25:49;;;;;;;1.60;1.50;;;6.90;99.90;;;7.06;100.00;94923.00;2191277;57;26198;-63
2021/05/19 00:28:36;;;;;;;4.23;1.60;;;6.90;99.90;;;7.03;100.00;94925.00;2405512;57;26619;-63
2021/05/19 00:31:24;;;;;;;1.60;1.50;;;6.90;99.90;;;7.02;100.00;94932.00;2192020;57;26278;-63
2021/05/19 00:34:11;;;;;;;4.80;1.80;;;6.90;99.90;;;7.10;100.00;94938.00;2404820;57;26170;-63
2021/05/19 00:36:57;;;;;;;3.40;1.80;;;7.00;99.90;;;7.26;100.00;94938.00;2191570;57;26233;-63
2021/05/19 00:39:44;;;;;;;2.17;1.63;;;7.10;99.90;;;7.37;100.00;94936.00;2191280;57;26157;-63
2021/05/19 00:42:30;;;;;;;3.33;1.63;;;7.20;99.90;;;7.48;100.00;94921.00;2405619;57;26754;-63
2021/05/19 00:45:19;;;;;;;3.30;1.47;;;7.10;99.90;;;7.32;100.00;94921.00;2191605;57;26121;-63
2021/05/19 00:48:11;;;;;;;1.93;1.37;;;7.10;99.90;;;7.30;100.00;94921.00;2405315;57;26145;-63
2021/05/19 00:50:57;;;;;;;1.73;1.30;;;7.10;99.90;;;7.35;100.00;94920.00;2191471;57;26102;-63
2021/05/19 00:53:43;;;;;;;4.03;1.47;;;7.10;99.90;;;7.30;100.00;94922.00;2405345;57;26165;-63
2021/05/19 00:56:30;;;;;;;3.50;1.50;;;7.20;99.90;;;7.37;100.00;94928.00;2191992;57;26139;-63
2021/05/19 00:59:16;;;;;;;3.30;1.30;;;7.10;99.90;;;7.33;100.00;94933.00;2405753;57;26189;-63
2021/05/19 01:02:03;;;;;;;2.60;1.57;;;7.20;99.90;;;7.36;100.00;94932.00;2191537;57;26121;-63
2021/05/19 01:04:49;;;;;;;1.63;1.47;;;7.10;99.90;;;7.33;100.00;94933.00;2405152;57;26141;-63
2021/05/19 01:07:39;;;;;;;4.30;1.50;;;7.10;99.90;;;7.31;100.00;94935.00;2192050;57;26544;-63
2021/05/19 01:10:26;;;;;;;1.60;1.33;;;7.20;99.90;;;7.46;100.00;94930.00;2405369;57;26141;-63
2021/05/19 01:13:13;;;;;;;1.90;1.40;;;7.10;99.90;;;7.34;100.00;94932.00;2192237;57;26754;-63
2021/05/19 01:16:00;;;;;;;4.77;1.40;;;7.10;99.90;;;7.36;100.00;94929.00;2191569;57;26186;-62
2021/05/19 01:18:47;;;;;;;1.87;1.30;;;7.20;99.90;;;7.45;100.00;94926.00;2405308;57;26559;-63
2021/05/19 01:21:34;;;;;;;3.07;1.27;;;7.20;99.90;;;7.44;100.00;94926.00;2192017;57;26630;-63
2021/05/19 01:24:21;;;;;;;2.57;1.50;;;7.20;99.90;;;7.46;100.00;94925.00;2405277;57;26142;-63
2021/05/19 01:27:08;;;;;;;3.40;1.40;;;7.40;99.90;;;7.69;100.00;94924.00;2192212;57;26243;-63
2021/05/19 01:29:59;;;;;;;2.77;1.60;;;7.40;99.90;;;7.66;100.00;94916.00;2405484;57;26605;-63
2021/05/19 01:32:45;;;;;;;2.03;1.50;;;7.40;99.90;;;7.64;100.00;94918.00;2191679;57;26619;-63
2021/05/19 01:35:31;;;;;;;1.50;1.30;;;7.40;99.90;;;7.63;100.00;94916.00;2405349;57;26122;-63
2021/05/19 01:38:18;;;;;;;3.23;1.30;;;7.40;99.90;;;7.65;100.00;94916.00;2192094;57;26149;-63
2021/05/19 01:41:04;;;;;;;1.80;1.37;;;7.50;99.90;;;7.73;100.00;94911.00;2405340;57;26670;-63
2021/05/19 01:43:50;;;;;;;3.83;1.50;;;7.50;99.90;;;7.74;100.00;94913.00;2191725;57;26639;-63
2021/05/19 01:46:37;;;;;;;3.83;1.47;;;7.50;99.90;;;7.71;100.00;94914.00;2406017;57;26117;-63
2021/05/19 01:49:29;;;;;;;5.23;1.30;;;7.50;99.90;;;7.78;100.00;94912.00;2191439;57;26222;-63
2021/05/19 01:52:15;;;;;;;3.13;1.43;;;7.40;99.90;;;7.68;100.00;94912.00;2405467;57;26575;-63
2021/05/19 01:55:03;;;;;;;2.87;1.40;;;7.40;99.90;;;7.63;100.00;94922.00;2191373;57;26839;-63
2021/05/19 01:57:50;;;;;;;1.40;1.30;;;7.40;99.90;;;7.65;100.00;94929.00;2191849;57;26112;-63
2021/05/19 02:00:37;;;;;;;4.47;1.60;;;7.40;99.90;;;7.63;100.00;94931.00;2405484;57;26241;-63
2021/05/19 02:03:23;;;;;;;1.97;1.30;;;7.40;99.90;;;7.69;100.00;94936.00;2191674;57;26261;-63
2021/05/19 02:06:10;;;;;;;2.90;1.27;;;7.40;99.90;;;7.68;100.00;94935.00;2405732;57;26098;-63
2021/05/19 02:08:56;;;;;;;2.87;1.40;;;7.40;99.90;;;7.65;100.00;94933.00;2191358;57;26642;-63
2021/05/19 02:11:43;;;;;;;2.30;1.20;;;7.40;99.90;;;7.66;100.00;94936.00;2406092;57;26551;-63
2021/05/19 02:14:29;;;;;;;3.40;1.50;;;7.40;99.90;;;7.66;100.00;94937.00;2191873;57;26595;-63
2021/05/19 02:17:16;;;;;;;2.73;1.60;;;7.40;99.90;;;7.61;100.00;94939.00;2405849;57;26728;-63
2021/05/19 02:20:10;;;;;;;2.23;1.43;;;7.40;99.90;;;7.60;100.00;94940.00;2191263;57;26635;-63
2021/05/19 02:22:57;;;;;;;3.50;1.30;;;7.40;99.90;;;7.64;100.00;94941.00;2405691;57;26105;-63
2021/05/19 02:25:43;;;;;;;2.00;1.23;;;7.40;99.90;;;7.59;100.00;94939.00;2191458;57;26214;-63
2021/05/19 02:28:29;;;;;;;2.73;1.20;;;7.40;99.90;;;7.82;100.00;94942.00;2405249;57;26117;-63
2021/05/19 02:31:16;;;;;;;1.93;1.20;;;7.50;99.90;;;7.87;100.00;94934.00;2405863;57;26118;-63
2021/05/19 02:34:04;;;;;;;4.47;1.50;;;7.60;99.90;;;7.80;100.00;94933.00;2191239;57;26134;-63
2021/05/19 02:36:54;;;;;;;3.27;1.40;;;7.50;99.90;;;7.77;100.00;94931.00;2405693;57;26197;-63
2021/05/19 02:39:41;;;;;;;1.57;1.07;;;7.50;99.90;;;7.67;100.00;94927.00;2190826;57;26227;-63
2021/05/19 02:42:27;;;;;;;4.07;1.50;;;7.40;99.90;;;7.72;100.00;94934.00;2190551;57;26137;-63
2021/05/19 02:45:16;;;;;;;1.50;1.20;;;7.40;99.90;;;7.65;100.00;94927.00;2191864;57;26627;-63
2021/05/19 02:48:03;;;;;;;2.17;1.27;;;7.40;99.90;;;7.74;100.00;94928.00;2404820;57;26540;-63
2021/05/19 02:50:50;;;;;;;1.53;1.20;;;7.50;99.90;;;7.72;100.00;94928.00;2191574;57;27189;-63
2021/05/19 02:53:36;;;;;;;4.50;1.70;;;7.40;99.90;;;7.65;100.00;94924.00;2405775;57;26169;-63
2021/05/19 02:56:23;;;;;;;1.97;1.20;;;7.30;99.90;;;7.57;100.00;94927.00;2191999;57;26173;-63
2021/05/19 02:59:09;;;;;;;3.30;1.40;;;7.30;99.90;;;7.54;100.00;94930.00;2405590;57;26210;-63
2021/05/19 03:01:55;;;;;;;4.50;1.50;;;7.30;99.90;;;7.49;100.00;94929.00;2191877;57;26598;-63
2021/05/19 03:04:42;;;;;;;2.87;1.43;;;7.30;99.90;;;7.51;100.00;94933.00;2405131;57;26998;-63
2021/05/19 03:07:28;;;;;;;3.43;1.50;;;7.30;99.90;;;7.59;100.00;94935.00;2192047;57;26165;-62
2021/05/19 03:10:15;;;;;;;3.47;1.40;;;7.40;99.90;;;7.68;100.00;94935.00;2191486;57;26620;-63
2021/05/19 03:13:02;;;;;;;4.40;1.77;;;7.40;99.90;;;7.69;100.00;94931.00;2405409;57;26697;-63
2021/05/19 03:15:49;;;;;;;8.93;1.73;;;7.30;99.90;;;7.55;100.00;94932.00;2191821;57;26121;-63
2021/05/19 03:18:36;;;;;;;3.10;1.40;;;7.30;99.90;;;7.61;100.00;94933.00;2405527;57;26217;-63
2021/05/19 03:21:23;;;;;;;4.43;1.30;;;7.30;99.90;;;7.70;100.00;94932.00;2191565;57;26209;-63
2021/05/19 03:24:11;;;;;;;4.33;1.40;;;7.30;99.90;;;7.54;100.00;94935.00;2405222;57;26213;-63
2021/05/19 03:26:57;;;;;;;3.27;1.50;;;7.40;99.90;;;7.69;100.00;94931.00;2192102;57;27181;-62
2021/05/19 03:29:43;;;;;;;3.17;1.57;;;7.40;99.90;;;7.71;100.00;94937.00;2405104;57;26181;-63
2021/05/19 03:32:30;;;;;;;4.83;1.70;;;7.30;99.90;;;7.62;100.00;94945.00;2191959;57;26145;-62
2021/05/19 03:35:16;;;;;;;3.03;1.83;;;7.30;99.90;;;7.62;100.00;94945.00;2405219;57;26190;-62
2021/05/19 03:38:03;;;;;;;3.83;2.07;;;7.40;99.90;;;7.71;100.00;94950.00;2191763;57;26157;-63
2021/05/19 03:40:49;;;;;;;2.47;1.67;;;7.40;99.90;;;7.68;100.00;94953.00;2191615;57;26130;-63
2021/05/19 03:43:37;;;;;;;2.73;1.70;;;7.30;99.90;;;7.57;100.00;94948.00;2405773;57;26194;-63
2021/05/19 03:46:24;;;;;;;2.17;1.63;;;7.30;99.90;;;7.56;100.00;94956.00;1896779;57;19435394;-63
2021/05/19 03:49:11;;;;;;;3.37;1.80;;;7.30;99.90;;;7.73;100.00;94953.00;2404780;57;26588;-63
2021/05/19 03:51:57;;;;;;;3.60;1.80;;;7.20;99.90;;;7.50;100.00;94958.00;2191887;57;26202;-63
2021/05/19 03:54:44;;;;;;;3.47;1.90;;;7.30;99.90;;;7.72;100.00;94964.00;2404891;57;26206;-62
2021/05/19 03:57:31;;;;;;;2.10;1.80;;;7.40;99.90;;;7.74;100.00;94955.00;2191878;57;26158;-62
2021/05/19 04:00:22;;;;;;;2.10;1.90;;;7.40;99.90;;;7.76;100.00;94960.00;2404334;57;26420;-63
2021/05/19 04:03:08;;;;;;;2.97;2.10;;;7.40;99.90;;;7.70;100.00;94958.00;2191652;57;26225;-63
2021/05/19 04:05:55;;;;;;;4.03;1.87;;;7.30;99.90;;;7.60;100.00;94964.00;2405466;57;26202;-63
2021/05/19 04:08:42;;;;;;;2.00;1.60;;;7.30;99.90;;;7.66;100.00;94963.00;2191567;57;26821;-63
2021/05/19 04:11:28;;;;;;;3.43;2.00;;;7.40;99.90;;;7.71;100.00;94976.00;2405541;57;26229;-63
2021/05/19 04:14:15;;;;;;;2.63;1.80;;;7.30;99.90;;;7.60;100.00;94976.00;2191692;57;26134;-63
2021/05/19 04:17:01;;;;;;;2.63;1.90;;;7.40;99.90;;;7.70;100.00;94969.00;2191930;57;26137;-63
2021/05/19 04:19:47;;;;;;;3.03;1.80;;;7.50;99.90;;;7.77;100.00;94978.00;2404715;57;26149;-63
2021/05/19 04:22:34;;;;;;;5.60;1.70;;;7.40;99.90;;;7.70;100.00;94983.00;2192127;57;26685;-63
2021/05/19 04:25:20;;;;;;;2.07;1.80;;;7.30;99.90;;;7.60;100.00;94979.00;2405518;57;26559;-62
2021/05/19 04:28:07;;;;;;;1.90;1.57;;;7.40;99.90;;;7.73;100.00;94979.00;2191542;57;26706;-63
2021/05/19 04:30:54;;;;;;;3.03;1.80;;;7.50;99.90;;;7.78;100.00;94977.00;2405497;57;26137;-62
2021/05/19 04:33:40;;;;;;;2.73;1.70;;;7.50;99.90;;;7.73;100.00;94980.00;2191612;57;26505;-63
2021/05/19 04:36:26;;;;;;;2.20;1.63;;;7.40;99.90;;;7.76;100.00;94981.00;2405303;57;26179;-63
2021/05/19 04:39:13;;;;;;;1.80;1.50;;;7.40;99.90;;;7.74;100.00;94981.00;2191643;57;26114;-63
2021/05/19 04:42:00;;;;;;;2.27;1.40;;;7.50;99.90;;;7.85;100.00;94983.00;2191856;57;26189;-63
2021/05/19 04:44:46;;;;;;;2.30;1.50;;;7.50;99.90;;;7.87;100.00;94984.00;2405660;57;26162;-63
2021/05/19 04:47:33;;;;;;;1.90;1.70;;;7.30;99.90;;;7.63;100.00;95000.00;2192387;57;26133;-63
2021/05/19 04:50:19;;;;;;;3.90;1.70;;;7.40;99.90;;;7.73;100.00;94996.00;2405793;57;26129;-63
2021/05/19 04:53:06;;;;;;;2.53;1.50;;;7.50;99.90;;;7.81;100.00;94993.00;2192098;57;26189;-63
2021/05/19 04:55:53;;;;;;;2.17;1.63;;;7.40;99.90;;;7.65;100.00;94993.00;2405530;57;26133;-63
2021/05/19 04:58:39;;;;;;;2.40;1.67;;;7.30;99.90;;;7.65;100.00;95001.00;2190954;57;26181;-63
2021/05/19 05:01:25;;;;;;;3.63;1.50;;;7.30;99.90;;;7.58;100.00;95002.00;2405546;57;26594;-62
2021/05/19 05:04:11;;;;;;;2.83;1.80;;;7.30;99.90;;;7.65;100.00;95014.00;2191800;57;26173;-63
2021/05/19 05:06:58;;;;;;;3.57;1.80;;;7.20;99.90;;;7.57;100.00;95010.00;2191924;57;26270;-63
2021/05/19 05:09:47;;;;;;;1.80;1.57;;;7.30;99.90;;;7.74;100.00;95013.00;2404959;57;26105;-62
2021/05/19 05:12:34;;;;;;;5.87;2.17;;;7.30;99.90;;;7.61;100.00;95014.00;2192395;57;26538;-62
2021/05/19 05:15:21;;;;;;;2.13;1.57;;;7.30;99.90;;;7.68;100.00;95008.00;2405819;57;26606;-63
2021/05/19 05:18:08;;;;;;;2.27;1.70;;;7.40;99.90;;;7.77;100.00;95018.00;2191538;57;26112;-63
2021/05/19 05:20:54;;;;;;;1.83;1.60;;;7.50;99.90;;;7.90;100.00;95012.00;2405789;57;26139;-62
2021/05/19 05:23:41;;;;;;;4.23;1.53;;;7.50;99.90;;;7.89;100.00;95017.00;2191400;57;26619;-63
2021/05/19 05:26:27;;;;;;;1.70;1.60;;;7.50;99.90;;;7.90;100.00;95015.00;2405515;57;26181;-63
2021/05/19 05:29:13;;;;;;;1.80;1.70;;;7.60;99.90;;;7.95;100.00;95010.00;2192013;57;26628;-63
2021/05/19 05:32:00;;;;;;;1.63;1.53;;;7.60;99.90;;;8.00;100.00;95015.00;2405874;57;26174;-62
2021/05/19 05:34:47;;;;;;;2.00;1.60;;;7.60;99.90;;;7.98;100.00;95009.00;2191234;57;26615;-62
2021/05/19 05:37:33;;;;;;;2.40;1.50;;;7.50;99.90;;;7.80;100.00;95023.00;2192429;57;26579;-62
2021/05/19 05:40:20;;;;;;;2.33;1.50;;;7.30;99.90;;;7.64;100.00;95022.00;2405869;57;26682;-62
2021/05/19 05:43:06;;;;;;;4.03;1.40;;;7.30;99.90;;;7.70;100.00;95019.00;2192053;57;26208;-62
2021/05/19 05:45:53;;;;;;;2.70;1.40;;;7.30;99.90;;;7.71;100.00;95024.00;2406067;57;26602;-62
2021/05/19 05:48:40;;;;;;;5.70;1.50;;;7.20;99.90;;;7.52;100.00;95026.00;2191804;57;26157;-62
2021/05/19 05:51:27;;;;;;;1.40;1.30;;;7.20;99.90;;;7.47;100.00;95030.00;2405990;57;26158;-62
2021/05/19 05:54:13;;;;;;;1.77;1.40;;;7.30;99.90;;;7.72;100.00;95019.00;2192121;57;26178;-62
2021/05/19 05:57:00;;;;;;;2.73;1.33;;;7.20;99.90;;;7.51;100.00;95027.00;2405933;57;26267;-62
2021/05/19 05:59:46;;;;;;;1.40;1.30;;;7.30;99.90;;;7.79;100.00;95031.00;2192009;57;26102;-62
2021/05/19 06:02:32;;;;;;;2.07;1.77;;;7.30;99.90;;;7.69;100.00;95035.00;2192180;57;26255;-62
2021/05/19 06:05:19;;;;;;;2.80;1.80;;;7.30;99.90;;;7.60;100.00;95026.00;2405952;57;26089;-62
2021/05/19 06:08:05;;;;;;;2.93;1.80;;;7.20;99.90;;;7.57;100.00;95037.00;2191926;57;26655;-62
2021/05/19 06:10:52;;;;;;;2.27;1.83;;;7.40;99.90;;;7.80;100.00;95027.00;2405645;57;26222;-62
2021/05/19 06:13:38;;;;;;;2.67;2.00;;;7.50;99.90;;;8.06;100.00;95030.00;2191782;57;26166;-62
2021/05/19 06:16:24;;;;;;;1.93;1.80;;;7.70;99.90;;;8.29;100.00;95033.00;2406193;57;26186;-62
2021/05/19 06:19:11;;;;;;;3.13;2.43;;;7.80;99.90;;;8.39;100.00;95031.00;2191924;57;26186;-62
2021/05/19 06:21:57;;;;;;;3.20;2.30;;;7.90;99.90;;;8.60;100.00;95027.00;2191868;57;26112;-62
2021/05/19 06:24:43;;;;;;;3.83;2.23;;;7.90;99.90;;;8.43;100.00;95036.00;2405429;57;26106;-63
2021/05/19 06:27:29;;;;;;;2.87;2.40;;;8.20;99.90;;;9.09;100.00;95027.00;2191826;57;26154;-62
2021/05/19 06:30:17;;;;;;;2.87;2.47;;;8.30;99.90;;;9.03;100.00;95032.00;2404986;57;26162;-62
2021/05/19 06:33:05;;;;;;;6.70;2.80;;;8.30;99.90;;;9.01;100.00;95041.00;2191538;57;26714;-63
2021/05/19 06:35:51;;;;;;;3.97;2.93;;;8.40;99.90;;;9.11;100.00;95044.00;2405398;57;26179;-63
2021/05/19 06:38:38;;;;;;;5.23;3.10;;;8.30;99.90;;;8.84;100.00;95039.00;2191399;57;26186;-62
2021/05/19 06:41:24;;;;;;;3.30;3.00;;;8.10;99.90;;;8.61;100.00;95046.00;2405827;57;26615;-63
2021/05/19 06:44:11;;;;;;;2.97;2.60;;;8.10;99.90;;;8.73;100.00;95050.00;2191682;57;26598;-63
2021/05/19 06:46:57;;;;;;;2.50;2.30;;;7.90;99.90;;;8.54;100.00;95053.00;2191533;57;26656;-63
2021/05/19 06:49:43;;;;;;;2.60;2.20;;;8.10;99.90;;;8.77;100.00;95048.00;2404979;57;26177;-63
2021/05/19 06:52:30;;;;;;;2.73;2.40;;;8.00;99.90;;;8.70;100.00;95050.00;2192050;57;26226;-62
2021/05/19 06:55:18;;;;;;;2.90;2.60;;;8.00;99.90;;;8.64;100.00;95053.00;2405217;57;26318;-63
2021/05/19 06:58:05;;;;;;;2.97;2.40;;;7.90;99.90;;;8.54;100.00;95055.00;2191821;57;26554;-62
2021/05/19 07:00:53;;;;;;;3.27;2.80;;;7.90;99.90;;;8.64;100.00;95056.00;2405746;57;26174;-63
2021/05/19 07:03:39;;;;;;;4.03;2.50;;;8.10;99.90;;;8.77;100.00;95046.00;2191291;57;26294;-63
2021/05/19 07:06:27;;;;;;;3.80;2.73;;;8.20;99.90;;;8.92;100.00;95049.00;2405699;57;26177;-62
2021/05/19 07:09:13;;;;;;;3.67;2.93;;;8.40;99.90;;;9.25;100.00;95045.00;2191551;57;26551;-62
2021/05/19 07:11:59;;;;;;;2.63;2.43;;;8.40;99.90;;;9.42;100.00;95039.00;2405505;57;26318;-63
2021/05/19 07:14:49;;;;;;;2.87;2.63;;;8.70;99.90;;;9.66;100.00;95044.00;2190410;57;27205;-63
2021/05/19 07:17:36;;;;;;;4.37;2.40;;;8.70;99.90;;;9.59;100.00;95038.00;2405179;57;26186;-63
2021/05/19 07:20:22;;;;;;;3.47;2.37;;;8.70;99.90;;;9.67;100.00;95040.00;2191383;57;26593;-63
2021/05/19 07:23:09;;;;;;;2.60;2.40;;;8.70;99.90;;;9.53;100.00;95044.00;2191888;57;26634;-63
2021/05/19 07:25:55;;;;;;;5.37;2.50;;;8.30;99.90;;;8.93;100.00;95044.00;2405783;57;26105;-63
2021/05/19 07:28:41;;;;;;;4.40;2.73;;;8.40;99.90;;;9.07;100.00;95042.00;2191479;57;26157;-63
2021/05/19 07:31:28;;;;;;;2.60;2.40;;;8.40;99.90;;;9.13;100.00;95055.00;2405621;57;26109;-63
2021/05/19 07:34:14;;;;;;;3.20;2.47;;;8.80;99.90;;;9.72;100.00;95043.00;2191265;57;26116;-66
2021/05/19 07:37:00;;;;;;;2.50;2.30;;;8.60;99.90;;;9.20;100.00;95055.00;2405385;57;26623;-62
2021/05/19 07:39:47;;;;;;;3.47;2.70;;;8.50;99.90;;;9.08;100.00;95060.00;2191115;57;26169;-62
2021/05/19 07:42:33;;;;;;;4.40;3.00;;;8.70;99.90;;;9.34;100.00;95053.00;2191692;57;26540;-62
2021/05/19 07:45:20;;;;;;;4.70;3.40;;;8.60;99.90;;;9.31;100.00;95055.00;2403599;57;26176;-62
2021/05/19 07:48:09;;;;;;;3.30;3.00;;;8.80;99.90;;;9.70;100.00;95052.00;2191685;57;26221;-62
2021/05/19 07:50:55;;;;;;;3.33;3.03;;;9.20;99.90;;;10.22;100.00;95042.00;2405425;57;26130;-62
2021/05/19 07:53:44;;;;;;;4.60;3.60;;;9.10;99.90;;;10.01;100.00;95035.00;2191557;57;26206;-62
2021/05/19 07:56:35;;;;;;;3.97;3.57;;;9.30;99.90;;;10.19;100.00;95035.00;2403825;57;26204;-63
2021/05/19 07:59:23;;;;;;;3.60;3.30;;;9.50;99.90;;;10.60;100.00;95039.00;2191705;57;26207;-62
2021/05/19 08:02:12;;;;;;;3.70;3.40;;;9.90;99.90;;;11.20;100.00;95026.00;2192187;57;26181;-62
2021/05/19 08:04:58;;;;;;;3.90;3.33;;;10.50;99.90;;;11.64;100.00;95027.00;2191675;57;26201;-62
2021/05/19 08:07:44;;;;;;;3.20;2.90;;;11.00;99.90;;;12.42;100.00;95015.00;2405860;57;26160;-64
2021/05/19 08:10:31;;;;;;;7.03;4.70;;;10.80;99.90;;;12.32;100.00;95015.00;2191682;57;26733;-62
2021/05/19 08:13:17;;;;;;;3.37;3.07;;;10.10;99.90;;;10.84;100.00;95022.00;2405777;57;26257;-63
2021/05/19 08:16:04;;;;;;;4.70;3.87;;;9.40;99.90;;;10.03;100.00;95026.00;2191775;57;26722;-61
2021/05/19 08:18:50;;;;;;;4.73;3.10;;;9.40;99.90;;;9.99;100.00;95026.00;2405132;57;26715;-63
2021/05/19 08:21:37;;;;;;;3.47;3.17;;;9.10;99.90;;;9.44;100.00;95027.00;2192192;57;26106;-62
2021/05/19 08:24:24;;;;;;;3.90;3.60;;;8.90;99.90;;;9.26;100.00;95045.00;2405283;57;26201;-63
2021/05/19 08:27:11;;;;;;;4.27;3.87;;;8.60;99.90;;;9.10;100.00;95044.00;2192077;57;26129;-62
2021/05/19 08:29:57;;;;;;;6.07;4.57;;;8.40;99.90;;;8.84;100.00;95055.00;2191623;57;26318;-62
2021/05/19 08:32:43;;;;;;;4.47;3.80;;;8.80;99.90;;;9.23;100.00;95050.00;2404726;57;26554;-62
2021/05/19 08:35:29;;;;;;;5.33;4.77;;;8.90;99.90;;;9.33;100.00;95046.00;2191921;57;26105;-63
2021/05/19 08:38:16;;;;;;;5.87;4.60;;;9.20;99.90;;;9.85;100.00;95044.00;2405981;57;26141;-62
2021/05/19 08:41:04;;;;;;;5.63;4.00;;;10.50;99.90;;;12.43;100.00;95032.00;2191877;57;26170;-63
2021/05/19 08:43:51;;;;;;;5.67;3.90;;;11.60;99.90;;;14.33;100.00;95018.00;2400953;57;26644;-63
2021/05/19 08:46:44;;;;;;;3.55;2.90;;;12.10;99.90;;;14.68;100.00;95006.00;2191971;57;26140;-63
2021/05/19 08:49:30;;;;;;;3.05;2.72;;;13.40;99.90;;;15.85;100.00;95007.00;2404889;57;26572;-63
2021/05/19 08:52:18;;;;;;;3.63;3.07;;;12.70;99.90;;;14.24;100.00;95006.00;2191615;57;26247;-62
2021/05/19 08:55:11;;;;;;;3.77;3.37;;;11.70;99.90;;;12.69;100.00;95009.00;2191703;57;26137;-62
2021/05/19 08:57:57;;;;;;;3.90;3.57;;;11.00;99.90;;;11.74;100.00;95009.00;2192197;57;26144;-62
2021/05/19 09:00:43;;;;;;;3.60;3.20;;;10.20;99.90;;;10.63;100.00;95021.00;2192166;57;26564;-63
2021/05/19 09:03:35;;;;;;;3.40;3.10;;;9.90;99.90;;;10.42;100.00;95034.00;2405180;57;26511;-63
2021/05/19 09:06:23;;;;;;;4.87;3.53;;;9.80;99.90;;;10.29;100.00;95038.00;2192359;57;26783;-62
2021/05/19 09:09:25;;;;;;;4.00;3.60;;;9.60;99.90;;;10.13;100.00;95028.00;2191695;57;26222;-62
2021/05/19 09:12:13;;;;;;;4.73;3.30;;;9.70;99.90;;;10.31;100.00;95031.00;2406308;57;26213;-63
2021/05/19 09:15:02;;;;;;;4.43;3.70;;;10.10;99.90;;;11.11;100.00;95029.00;2192364;57;26150;-63
2021/05/19 09:17:56;;;;;;;4.23;3.73;;;10.50;99.90;;;11.67;100.00;95026.00;2406132;57;26570;-62
2021/05/19 09:20:49;;;;;;;5.30;3.70;;;11.30;99.90;;;12.82;100.00;95020.00;2405252;57;26164;-62
2021/05/19 09:23:49;;;;;;;4.10;3.70;;;12.00;99.90;;;13.87;100.00;95008.00;2191968;57;26149;-62
2021/05/19 09:26:51;;;;;;;4.27;3.80;;;12.50;99.90;;;13.97;100.00;95008.00;2406020;57;26226;-62
2021/05/19 09:29:39;;;;;;;5.47;4.77;;;11.60;99.90;;;12.89;100.00;95008.00;2405649;57;26289;-63
2021/05/19 09:32:25;;;;;;;8.13;5.83;;;11.20;99.90;;;12.22;100.00;95014.00;2191511;57;26122;-63
2021/05/19 09:35:15;;;;;;;5.07;4.60;;;11.00;99.90;;;11.93;100.00;95015.00;2405826;57;26603;-63
2021/05/19 09:38:01;;;;;;;5.00;4.50;;;11.20;99.90;;;11.91;100.00;95006.00;2191607;57;26262;-62
2021/05/19 09:40:48;;;;;;;5.03;4.53;;;11.60;99.90;;;12.68;100.00;95012.00;2405168;57;26658;-63
2021/05/19 09:43:34;;;;;;;5.00;4.50;;;12.60;99.90;;;14.37;100.00;95006.00;2192048;57;26183;-63
2021/05/19 09:46:23;;;;;;;4.32;3.58;;;13.10;99.90;;;14.50;100.00;95006.00;2406376;57;26118;-63
2021/05/19 09:49:16;;;;;;;3.40;3.10;;;11.80;99.90;;;12.80;100.00;95013.00;2191541;57;26630;-63
2021/05/19 09:52:12;;;;;;;5.50;4.00;;;11.20;99.90;;;11.53;100.00;95008.00;2405650;57;26254;-63
2021/05/19 09:55:11;;;;;;;7.83;5.77;;;11.10;99.90;;;11.66;100.00;95019.00;2191915;57;26347;-64
2021/05/19 09:57:57;;;;;;;4.07;3.63;;;11.20;99.90;;;12.01;100.00;95012.00;2192247;57;26631;-63
2021/05/19 10:00:43;;;;;;;3.87;3.43;;;10.70;99.90;;;11.29;100.00;95021.00;2192339;57;26209;-63
2021/05/19 10:03:32;;;;;;;3.47;2.60;;;10.70;99.90;;;11.30;100.00;95024.00;2405699;57;26610;-63
2021/05/19 10:06:24;;;;;;;2.80;2.50;;;10.10;99.90;;;10.54;100.00;95037.00;2191919;57;26180;-63
2021/05/19 10:09:10;;;;;;;2.30;2.10;;;10.10;99.90;;;10.71;100.00;95037.00;2191583;57;26710;-63
2021/05/19 10:11:58;;;;;;;3.03;2.40;;;9.80;99.90;;;10.36;100.00;95052.00;2192265;57;26626;-63
2021/05/19 10:14:46;;;;;;;3.77;2.77;;;9.70;99.90;;;10.24;100.00;95056.00;2406315;57;26225;-63
2021/05/19 10:17:37;;;;;;;3.47;2.80;;;9.50;99.90;;;10.04;100.00;95072.00;2191854;57;26177;-63
2021/05/19 10:20:27;;;;;;;2.70;2.50;;;8.80;99.90;;;9.11;100.00;95088.00;2191978;57;26150;-63
2021/05/19 10:23:15;;;;;;;5.10;3.27;;;8.20;99.90;;;8.75;100.00;95084.00;2405779;57;26942;-63
2021/05/19 10:26:10;;;;;;;6.83;4.33;;;7.90;99.90;;;8.53;100.00;95082.00;2191459;57;26129;-63
2021/05/19 10:28:56;;;;;;;5.53;5.03;;;7.80;99.90;;;8.18;100.00;95084.00;2404592;57;26177;-63
2021/05/19 10:31:43;;;;;;;5.63;4.83;;;7.80;99.90;;;8.36;100.00;95093.00;2191002;57;26247;-62
2021/05/19 10:34:45;;;;;;;4.50;4.10;;;8.00;99.90;;;8.42;100.00;95089.00;2191692;57;26182;-62
2021/05/19 10:37:50;;;;;;;5.00;4.30;;;7.90;99.90;;;8.35;100.00;95088.00;2190683;57;26276;-65
2021/05/19 10:40:37;;;;;;;4.23;3.83;;;8.10;99.90;;;8.60;100.00;95091.00;2191260;57;26547;-63
2021/05/19 10:43:47;;;;;;;4.03;3.63;;;8.00;99.90;;;8.60;100.00;95083.00;2406039;57;26590;-62
2021/05/19 10:46:58;;;;;;;4.10;3.70;;;8.50;99.90;;;9.22;100.00;95083.00;2406002;57;26157;-62
2021/05/19 10:50:18;;;;;;;5.53;4.10;;;8.10;99.90;;;8.61;100.00;95081.00;2191451;57;26133;-62
2021/05/19 11:00:15;;;;;;;5.40;4.50;;;8.10;99.90;;;8.67;100.00;95085.00;2192151;57;26270;-62
2021/05/19 11:03:14;;;;;;;19.47;13.90;;;8.60;99.90;;;9.60;100.00;95092.00;2404656;57;26728;-63
2021/05/19 11:06:13;;;;;;;8.40;5.00;;;9.40;99.90;;;10.18;100.00;95081.00;2191899;57;26274;-62
2021/05/19 11:09:27;;;;;;;4.97;4.43;;;9.20;99.90;;;9.78;100.00;95089.00;2191775;57;26642;-62
2021/05/19 11:12:49;;;;;;;4.07;3.40;;;9.50;99.90;;;9.98;100.00;95082.00;2192454;57;26148;-62
2021/05/19 11:16:00;;;;;;;4.60;3.63;;;9.50;99.90;;;9.99;100.00;95076.00;2406297;57;26137;-62
2021/05/19 11:19:02;;;;;;;3.20;2.90;;;9.30;99.90;;;9.90;100.00;95088.00;2405915;57;26132;-62
2021/05/19 11:21:58;;;;;;;3.77;2.80;;;9.50;99.90;;;10.03;100.00;95075.00;2406138;57;26254;-63
2021/05/19 11:24:57;;;;;;;3.17;2.43;;;9.50;99.90;;;10.32;100.00;95086.00;2404887;57;26247;-62
2021/05/19 11:27:43;;;;;;;3.00;2.70;;;9.20;99.90;;;9.67;100.00;95090.00;2191245;57;26141;-62
2021/05/19 11:30:29;;;;;;;4.37;2.90;;;9.20;99.90;;;9.74;100.00;95088.00;2405325;57;26189;-62
2021/05/19 11:33:20;;;;;;;3.27;2.57;;;9.10;99.90;;;9.62;100.00;95092.00;2190908;57;26591;-62
2021/05/19 11:36:07;;;;;;;2.87;2.20;;;8.70;99.90;;;9.32;100.00;95096.00;2404509;57;26781;-62
2021/05/19 11:38:53;;;;;;;2.90;2.63;;;9.00;99.90;;;9.66;100.00;95098.00;2191711;57;26234;-62
2021/05/19 11:41:39;;;;;;;3.13;2.67;;;8.90;99.90;;;9.29;100.00;95096.00;2405696;57;26616;-63
2021/05/19 11:44:34;;;;;;;3.03;2.73;;;8.30;99.90;;;8.88;100.00;95103.00;2192226;57;26580;-62
2021/05/19 11:47:37;;;;;;;3.40;3.10;;;8.40;99.90;;;8.95;100.00;95094.00;2406219;57;26230;-62
2021/05/19 11:50:25;;;;;;;3.23;2.93;;;8.00;99.90;;;8.44;100.00;95088.00;2406152;57;26633;-63
2021/05/19 11:53:13;;;;;;;3.60;3.30;;;8.50;99.90;;;9.00;100.00;95089.00;2191769;57;26161;-64
2021/05/19 11:56:00;;;;;;;3.57;2.93;;;8.80;99.90;;;9.51;100.00;95091.00;2191817;57;26334;-63
2021/05/19 11:58:47;;;;;;;3.33;2.90;;;9.00;99.90;;;9.58;100.00;95068.00;2192263;57;26807;-62